Time;durP1;ratioP1;P1;durP2;ratioP2;P2;SDS_P1;SDS_P2;PMS_P1;PMS_P2;Temp;Humidity;BMP_temperature;BMP_pressure;BME280_temperature;BME280_humidity;BME280_pressure;Samples;Min_cycle;Max_cycle;Signal;HPM_P1;HPM_P2
2023/03/27 00:00:44;;;;;;;1.73;1.10;;;;;;;9.11;59.54;96130.53;6151488;28;20261;-46
2023/03/27 00:03:48;;;;;;;2.57;1.10;;;;;;;9.07;59.92;96117.00;6132866;28;20234;-46
2023/03/27 00:06:53;;;;;;;1.07;0.80;;;;;;;9.02;59.88;96122.34;6148967;28;20319;-46
2023/03/27 00:09:56;;;;;;;1.87;1.20;;;;;;;8.74;60.19;96095.28;6145602;28;20312;-47
2023/03/27 00:12:58;;;;;;;1.70;1.50;;;;;;;8.98;59.59;96124.72;6145199;28;20318;-47
2023/03/27 00:16:01;;;;;;;1.87;1.63;;;;;;;8.87;60.12;96120.50;6148776;28;20234;-47
2023/03/27 00:19:04;;;;;;;2.47;1.73;;;;;;;8.81;60.27;96110.16;6144542;28;20230;-45
2023/03/27 00:22:06;;;;;;;2.57;1.90;;;;;;;8.72;60.43;96128.50;6145636;28;20744;-47
2023/03/27 00:25:10;;;;;;;3.10;1.80;;;;;;;8.63;61.17;96124.78;6148104;28;20234;-49
2023/03/27 00:28:12;;;;;;;3.10;1.30;;;;;;;8.54;61.59;96121.88;6145196;28;21023;-46
2023/03/27 00:31:16;;;;;;;2.23;1.40;;;;;;;8.84;60.28;96126.34;6147003;28;20238;-46
2023/03/27 00:34:18;;;;;;;3.03;2.10;;;;;;;8.71;61.08;96121.56;6145181;28;20320;-47
2023/03/27 00:37:21;;;;;;;2.07;1.87;;;;;;;8.77;60.82;96125.84;6144224;28;20247;-47
2023/03/27 00:40:23;;;;;;;2.27;1.87;;;;;;;8.77;61.06;96116.00;6149156;28;20237;-48
2023/03/27 00:43:27;;;;;;;3.20;1.73;;;;;;;8.71;61.13;96116.28;6146916;28;20226;-46
2023/03/27 00:46:41;;;;;;;2.60;1.40;;;;;;;8.51;61.83;96114.44;6147312;28;20234;-47
2023/03/27 00:49:43;;;;;;;1.90;1.50;;;;;;;8.45;61.97;96120.81;6143219;28;20726;-46
2023/03/27 00:52:50;;;;;;;2.23;1.70;;;;;;;8.37;62.05;96121.34;6146053;28;20317;-47
2023/03/27 00:55:55;;;;;;;1.93;1.73;;;;;;;8.38;62.14;96126.41;6144386;28;20246;-46
2023/03/27 00:59:04;;;;;;;2.10;1.40;;;;;;;8.31;62.36;96119.72;6148371;28;20284;-48
2023/03/27 01:02:07;;;;;;;1.57;1.47;;;;;;;8.16;62.80;96131.13;6148388;28;20243;-45
2023/03/27 01:05:11;;;;;;;1.80;1.40;;;;;;;8.09;63.21;96135.91;6144539;28;20745;-45
2023/03/27 01:08:15;;;;;;;1.33;1.23;;;;;;;8.04;63.49;96126.09;6144626;28;20317;-46
2023/03/27 01:11:45;;;;;;;1.63;1.20;;;;;;;7.94;63.56;96126.88;6143674;28;20566;-47
2023/03/27 01:14:56;;;;;;;0.97;0.97;;;;;;;8.04;63.21;96135.91;6148593;28;20262;-51
2023/03/27 01:18:43;;;;;;;1.40;1.30;;;;;;;7.97;62.97;96117.56;6148865;28;20246;-46
2023/03/27 01:22:08;;;;;;;1.03;1.00;;;;;;;7.61;64.13;96122.81;6146805;28;20717;-47
2023/03/27 01:25:47;;;;;;;1.10;1.00;;;;;;;7.67;63.86;96115.66;6143427;28;20324;-47
2023/03/27 01:29:01;;;;;;;1.10;1.07;;;;;;;7.48;64.65;96121.44;6145202;28;20230;-46
2023/03/27 01:32:24;;;;;;;1.30;1.20;;;;;;;7.66;64.13;96122.03;6126406;28;20244;-47
2023/03/27 01:35:36;;;;;;;1.63;1.23;;;;;;;7.37;64.94;96103.91;6143571;28;20235;-48
2023/03/27 01:38:41;;;;;;;1.37;1.17;;;;;;;7.30;65.46;96111.31;6137254;28;20238;-45
2023/03/27 01:42:05;;;;;;;1.30;1.20;;;;;;;7.19;65.48;96114.97;6132141;28;20264;-46
2023/03/27 01:45:39;;;;;;;0.87;0.83;;;;;;;7.23;64.66;96089.56;6162376;28;20241;-48
2023/03/27 01:48:47;;;;;;;1.20;1.10;;;;;;;7.13;65.63;96106.19;6145319;28;20284;-46
2023/03/27 01:51:57;;;;;;;1.20;1.10;;;;;;;7.02;65.64;96103.78;6126541;28;20241;-46
2023/03/27 01:55:03;;;;;;;1.20;0.93;;;;;;;7.18;64.95;96113.38;6147477;28;20406;-46
2023/03/27 01:58:15;;;;;;;0.87;0.87;;;;;;;7.03;65.42;96108.00;6124870;28;20234;-48
2023/03/27 02:01:22;;;;;;;0.87;0.87;;;;;;;6.91;65.86;96114.31;6164633;28;20250;-48
2023/03/27 02:04:34;;;;;;;1.27;1.03;;;;;;;6.96;65.23;96116.19;6144386;28;20231;-47
2023/03/27 02:07:43;;;;;;;1.37;1.27;;;;;;;6.86;65.18;96089.66;6145734;28;20321;-48
2023/03/27 02:10:52;;;;;;;1.13;1.10;;;;;;;6.85;65.96;96103.97;6149468;28;20324;-50
2023/03/27 02:13:59;;;;;;;2.73;1.33;;;;;;;6.74;66.55;96100.44;6125507;28;20335;-50
2023/03/27 02:17:09;;;;;;;1.50;1.40;;;;;;;6.94;65.71;96092.59;6134728;28;20245;-47
2023/03/27 02:20:15;;;;;;;1.40;1.30;;;;;;;6.59;66.71;96055.38;6144367;28;20321;-46
2023/03/27 02:23:17;;;;;;;1.63;1.53;;;;;;;6.70;67.04;96067.63;6144904;28;20244;-49
2023/03/27 02:26:19;;;;;;;1.77;1.63;;;;;;;6.66;67.27;96077.91;6142902;28;20284;-46
2023/03/27 02:30:02;;;;;;;1.60;1.50;;;;;;;6.53;67.75;96075.72;6125828;28;20317;-48
2023/03/27 02:33:36;;;;;;;1.23;1.23;;;;;;;6.37;67.88;96053.66;6139243;28;20245;-48
2023/03/27 02:36:55;;;;;;;1.47;1.37;;;;;;;6.47;68.39;96066.94;6158215;28;20237;-49
2023/03/27 02:40:37;;;;;;;1.53;1.43;;;;;;;6.47;68.18;96069.59;6141866;28;20295;-48
2023/03/27 02:44:09;;;;;;;1.37;1.10;;;;;;;6.39;68.98;96061.34;6151202;28;20240;-48
2023/03/27 02:47:51;;;;;;;1.20;1.10;;;;;;;6.24;69.06;96058.59;6151475;28;20771;-51
2023/03/27 02:51:12;;;;;;;0.80;0.80;;;;;;;6.40;68.06;96053.16;6132166;28;20238;-50
2023/03/27 02:54:18;;;;;;;0.70;0.70;;;;;;;6.31;68.63;96054.69;6150690;28;20298;-52
2023/03/27 02:57:25;;;;;;;1.30;0.73;;;;;;;6.37;68.29;96053.66;6130516;28;20324;-50
2023/03/27 03:00:49;;;;;;;0.70;0.70;;;;;;;6.25;68.62;96046.97;6161015;28;20589;-48
2023/03/27 03:04:55;;;;;;;0.60;0.60;;;;;;;6.16;69.02;96051.94;6150901;28;20315;-51
2023/03/27 03:08:04;;;;;;;0.40;0.40;;;;;;;5.92;69.24;96001.28;6151197;28;20347;-45
2023/03/27 03:11:10;;;;;;;0.70;0.70;;;;;;;6.13;68.95;96041.88;6146254;28;20843;-45
2023/03/27 03:14:13;;;;;;;0.77;0.60;;;;;;;6.20;68.74;96045.06;6150759;28;20240;-45
2023/03/27 03:17:16;;;;;;;0.60;0.60;;;;;;;6.17;68.56;96027.09;6137794;28;20245;-45
2023/03/27 03:20:20;;;;;;;0.50;0.50;;;;;;;6.30;68.45;96041.69;6127265;28;20229;-45
2023/03/27 03:23:23;;;;;;;0.47;0.40;;;;;;;6.23;68.61;96034.00;6121521;28;20255;-46
2023/03/27 03:26:25;;;;;;;0.60;0.60;;;;;;;6.42;67.83;96055.53;6124129;28;20237;-46
2023/03/27 03:29:28;;;;;;;0.43;0.43;;;;;;;5.99;68.19;96011.63;6137658;28;20317;-45
2023/03/27 03:32:43;;;;;;;1.17;0.67;;;;;;;6.10;68.96;96059.00;6108818;28;20245;-45
2023/03/27 03:35:49;;;;;;;0.50;0.50;;;;;;;6.09;69.00;96069.84;6144641;28;20323;-45
2023/03/27 03:39:02;;;;;;;0.70;0.43;;;;;;;5.99;69.32;96062.63;6130713;28;20269;-46
2023/03/27 03:42:05;;;;;;;0.50;0.50;;;;;;;6.05;69.05;96068.75;6121944;28;20224;-46
2023/03/27 03:45:07;;;;;;;0.40;0.40;;;;;;;6.04;68.91;96072.44;6137520;28;20234;-46
2023/03/27 03:48:10;;;;;;;0.60;0.60;;;;;;;6.05;69.01;96064.25;6122744;28;20218;-46
2023/03/27 03:51:12;;;;;;;0.40;0.40;;;;;;;5.95;69.07;96064.97;6138180;28;20830;-45
2023/03/27 03:54:14;;;;;;;0.50;0.40;;;;;;;5.86;69.49;96070.94;6157549;28;20251;-46
2023/03/27 03:57:18;;;;;;;1.50;0.40;;;;;;;5.91;69.37;96066.56;6125603;28;20691;-47
2023/03/27 04:00:38;;;;;;;0.47;0.47;;;;;;;5.93;68.87;96079.50;6127721;28;20257;-45
2023/03/27 04:03:47;;;;;;;0.30;0.30;;;;;;;5.87;69.25;96080.50;6146781;28;20332;-49
2023/03/27 04:06:51;;;;;;;0.30;0.30;;;;;;;5.90;69.62;96091.34;6128547;28;20235;-46
2023/03/27 04:09:54;;;;;;;1.90;0.40;;;;;;;5.92;68.89;96096.41;6140804;28;20887;-46
2023/03/27 04:13:01;;;;;;;0.40;0.40;;;;;;;5.96;68.54;96097.50;6104771;28;20243;-45
2023/03/27 04:16:06;;;;;;;0.97;0.30;;;;;;;6.10;67.54;96092.59;6128654;28;20736;-45
2023/03/27 04:19:13;;;;;;;0.40;0.30;;;;;;;5.60;68.65;96060.16;6145522;28;20233;-49
2023/03/27 04:22:16;;;;;;;0.40;0.30;;;;;;;5.73;68.90;96098.59;6128916;28;20715;-45
2023/03/27 04:25:21;;;;;;;0.53;0.40;;;;;;;5.62;68.61;96081.84;6144349;28;20576;-46
2023/03/27 04:28:23;;;;;;;0.37;0.37;;;;;;;6.01;68.15;96104.66;6129024;28;20668;-45
2023/03/27 04:31:39;;;;;;;0.40;0.40;;;;;;;5.92;68.34;96107.78;6136602;28;20379;-46
2023/03/27 04:35:11;;;;;;;0.40;0.40;;;;;;;5.70;68.10;96088.50;6146406;28;20240;-48
2023/03/27 04:38:25;;;;;;;0.43;0.40;;;;;;;5.89;68.62;96105.59;6127857;28;20241;-45
2023/03/27 04:41:29;;;;;;;0.30;0.30;;;;;;;5.86;68.92;96106.13;6145648;28;20241;-45
2023/03/27 04:44:33;;;;;;;0.90;0.30;;;;;;;6.02;68.26;96111.56;6135953;28;20283;-47
2023/03/27 04:47:36;;;;;;;0.20;0.20;;;;;;;6.08;67.66;96110.56;6127700;28;20245;-45
2023/03/27 04:50:43;;;;;;;0.50;0.30;;;;;;;6.04;68.11;96106.81;6127834;28;20230;-46
2023/03/27 04:53:48;;;;;;;0.30;0.30;;;;;;;5.91;68.52;96121.19;6150588;28;20257;-47
2023/03/27 04:56:50;;;;;;;0.80;0.30;;;;;;;5.98;68.48;96116.56;6129002;28;20248;-50
2023/03/27 04:59:52;;;;;;;0.33;0.33;;;;;;;5.97;68.67;96130.03;6154037;28;20240;-46
2023/03/27 05:03:22;;;;;;;0.83;0.30;;;;;;;5.97;68.54;96124.75;6118727;28;20235;-45
2023/03/27 05:06:31;;;;;;;0.30;0.30;;;;;;;5.89;68.99;96137.31;6134937;28;20229;-46
2023/03/27 05:09:35;;;;;;;0.50;0.30;;;;;;;5.88;68.97;96141.00;6144915;28;20225;-48
2023/03/27 05:12:46;;;;;;;0.30;0.30;;;;;;;5.79;69.12;96152.28;6132155;28;20231;-49
2023/03/27 05:15:49;;;;;;;0.30;0.30;;;;;;;5.91;68.62;96137.91;6144122;28;20293;-45
2023/03/27 05:18:54;;;;;;;0.37;0.37;;;;;;;5.88;68.82;96156.88;6144778;28;20245;-45
2023/03/27 05:21:56;;;;;;;0.87;0.20;;;;;;;5.79;69.44;96157.56;6126418;28;20249;-49
2023/03/27 05:25:00;;;;;;;0.20;0.20;;;;;;;5.92;68.62;96160.63;6144336;28;20246;-44
2023/03/27 05:28:02;;;;;;;0.20;0.20;;;;;;;5.83;68.97;96162.09;6159486;28;20703;-45
2023/03/27 05:31:09;;;;;;;0.20;0.20;;;;;;;5.88;68.58;96159.50;6144649;28;20266;-49
2023/03/27 05:34:23;;;;;;;0.20;0.20;;;;;;;5.72;69.45;96170.19;6143219;28;20678;-45
2023/03/27 05:37:28;;;;;;;0.10;0.10;;;;;;;5.70;69.69;96170.41;6142644;28;20230;-46
2023/03/27 05:40:51;;;;;;;0.20;0.20;;;;;;;5.70;69.51;96173.03;6145618;28;20369;-45
2023/03/27 05:43:53;;;;;;;1.50;0.20;;;;;;;5.99;68.04;96149.84;6124122;28;20238;-47
2023/03/27 05:46:55;;;;;;;0.20;0.20;;;;;;;5.89;68.63;96184.09;6127092;28;20242;-45
2023/03/27 05:50:01;;;;;;;0.10;0.10;;;;;;;5.83;68.41;96183.25;6159776;28;20230;-45
2023/03/27 05:53:08;;;;;;;0.47;0.40;;;;;;;5.73;68.69;96201.63;6147627;28;20234;-47
2023/03/27 05:56:16;;;;;;;0.10;0.10;;;;;;;5.89;69.00;96192.81;6143327;28;20272;-45
2023/03/27 05:59:38;;;;;;;0.33;0.10;;;;;;;5.70;68.98;96194.97;6140417;28;20222;-45
2023/03/27 06:02:55;;;;;;;0.23;0.10;;;;;;;5.80;68.26;96204.06;6156897;28;20334;-48
2023/03/27 06:06:11;;;;;;;0.10;0.10;;;;;;;5.72;68.95;96210.59;6147402;28;20231;-48
2023/03/27 06:09:16;;;;;;;0.10;0.10;;;;;;;5.80;68.43;96201.44;6146411;28;20302;-48
2023/03/27 06:12:35;;;;;;;0.23;0.20;;;;;;;5.65;69.34;96215.25;6127409;28;20230;-46
2023/03/27 06:15:52;;;;;;;0.10;0.10;;;;;;;5.53;69.31;96188.97;6149045;28;20247;-46
2023/03/27 06:19:19;;;;;;;0.20;0.20;;;;;;;5.77;68.68;96220.44;6130992;28;20250;-47
2023/03/27 06:22:25;;;;;;;0.20;0.20;;;;;;;5.75;68.95;96217.22;6166854;28;20245;-48
2023/03/27 06:25:33;;;;;;;0.10;0.10;;;;;;;5.97;68.69;96215.41;6162782;28;20238;-47
2023/03/27 06:28:37;;;;;;;0.03;0.03;;;;;;;5.89;68.36;96229.00;6131542;28;20339;-47
2023/03/27 06:31:40;;;;;;;0.10;0.10;;;;;;;5.91;69.66;96214.56;6133361;28;20250;-48
2023/03/27 06:34:48;;;;;;;0.50;0.30;;;;;;;5.90;69.13;96228.75;6148448;28;20292;-49
2023/03/27 06:38:11;;;;;;;0.10;0.10;;;;;;;5.83;70.08;96230.00;6130355;28;20233;-44
2023/03/27 06:41:13;;;;;;;0.20;0.20;;;;;;;5.75;70.37;96223.31;6131505;28;20242;-50
2023/03/27 06:44:38;;;;;;;0.20;0.20;;;;;;;5.90;69.99;96241.97;6130717;28;20786;-48
2023/03/27 06:48:02;;;;;;;0.20;0.20;;;;;;;5.92;70.70;96250.50;6147244;28;20322;-51
2023/03/27 06:51:21;;;;;;;1.10;0.10;;;;;;;5.84;71.00;96248.25;6146194;28;20231;-50
2023/03/27 06:54:25;;;;;;;0.20;0.20;;;;;;;5.83;70.09;96235.28;6130838;28;20228;-44
2023/03/27 06:57:28;;;;;;;0.40;0.20;;;;;;;5.92;69.92;96247.06;6162119;28;20312;-44
2023/03/27 07:00:36;;;;;;;0.30;0.20;;;;;;;5.75;71.38;96233.06;6129952;28;20247;-46
2023/03/27 07:04:01;;;;;;;0.37;0.20;;;;;;;5.90;71.21;96267.59;6150646;28;20307;-45
2023/03/27 07:07:27;;;;;;;0.20;0.20;;;;;;;5.91;70.89;96253.34;6135062;28;20267;-44
2023/03/27 07:10:30;;;;;;;0.37;0.20;;;;;;;5.93;71.94;96254.72;6130950;28;20248;-45
2023/03/27 07:13:34;;;;;;;0.20;0.20;;;;;;;5.87;71.26;96266.28;6147816;28;20241;-47
2023/03/27 07:16:40;;;;;;;0.40;0.20;;;;;;;5.66;72.31;96235.34;6146036;28;20241;-45
2023/03/27 07:19:42;;;;;;;0.20;0.20;;;;;;;5.79;71.50;96252.69;6150281;28;20243;-46
2023/03/27 07:22:46;;;;;;;0.30;0.30;;;;;;;5.76;72.94;96280.38;6145788;28;20321;-45
2023/03/27 07:26:20;;;;;;;0.27;0.27;;;;;;;5.94;72.56;96271.38;6146711;28;20234;-46
2023/03/27 07:29:35;;;;;;;0.43;0.40;;;;;;;6.01;71.85;96268.53;6129314;28;20731;-45
2023/03/27 07:32:40;;;;;;;0.60;0.60;;;;;;;5.88;73.25;96280.28;6149595;28;20273;-44
2023/03/27 07:35:44;;;;;;;0.60;0.60;;;;;;;5.92;72.73;96270.84;6128637;28;20243;-48
2023/03/27 07:39:13;;;;;;;1.07;0.70;;;;;;;6.19;73.42;96286.72;6155563;28;20253;-45
2023/03/27 07:42:14;;;;;;;0.93;0.93;;;;;;;6.08;72.10;96295.59;6129340;28;20722;-46
2023/03/27 07:45:37;;;;;;;1.27;1.17;;;;;;;6.01;73.18;96298.44;6145585;28;20234;-47
2023/03/27 07:48:40;;;;;;;1.50;1.40;;;;;;;5.88;74.14;96293.50;6153780;28;20602;-47
2023/03/27 07:51:48;;;;;;;2.37;1.57;;;;;;;5.94;73.71;96308.38;6162083;28;20329;-46
2023/03/27 07:54:51;;;;;;;6.00;2.10;;;;;;;5.70;73.53;96265.50;6146038;28;20709;-45
2023/03/27 07:57:57;;;;;;;2.83;2.00;;;;;;;5.99;74.36;96302.38;6146373;28;20231;-44
2023/03/27 08:01:06;;;;;;;2.17;2.07;;;;;;;6.05;73.23;96291.59;6150629;28;20242;-47
2023/03/27 08:04:09;;;;;;;2.30;2.10;;;;;;;6.05;73.75;96314.59;6146124;28;20240;-47
2023/03/27 08:07:14;;;;;;;2.40;2.20;;;;;;;6.21;74.75;96316.38;6146486;28;20270;-47
2023/03/27 08:10:17;;;;;;;2.20;2.00;;;;;;;6.27;73.78;96310.09;6130013;28;20243;-45
2023/03/27 08:13:29;;;;;;;2.30;2.10;;;;;;;6.31;74.93;96318.34;6127385;28;20316;-47
2023/03/27 08:16:36;;;;;;;2.23;1.80;;;;;;;6.28;73.29;96324.91;6128711;28;20730;-45
2023/03/27 08:19:38;;;;;;;2.03;1.73;;;;;;;6.29;73.39;96326.50;6145649;28;20739;-46
2023/03/27 08:22:41;;;;;;;2.00;1.80;;;;;;;6.28;73.29;96324.13;6128895;28;20612;-45
2023/03/27 08:26:09;;;;;;;1.90;1.80;;;;;;;6.30;73.89;96320.16;6121777;28;20322;-45
2023/03/27 08:29:25;;;;;;;1.90;1.80;;;;;;;6.20;75.25;96335.91;6131764;28;20325;-48
2023/03/27 08:32:27;;;;;;;3.17;1.90;;;;;;;6.30;74.91;96343.97;6144406;28;20622;-47
2023/03/27 08:35:30;;;;;;;6.73;2.10;;;;;;;6.26;75.83;96345.53;6144625;28;20226;-46
2023/03/27 08:38:33;;;;;;;2.20;2.00;;;;;;;6.15;75.70;96352.53;6142309;28;20239;-45
2023/03/27 08:41:51;;;;;;;2.03;1.83;;;;;;;6.12;76.30;96354.88;6139888;28;20241;-46
2023/03/27 08:45:07;;;;;;;2.20;2.00;;;;;;;5.95;76.39;96339.84;6135608;28;20239;-46
2023/03/27 08:48:20;;;;;;;2.00;1.90;;;;;;;6.01;76.49;96367.19;6143933;28;20648;-46
2023/03/27 08:51:28;;;;;;;4.37;2.00;;;;;;;6.08;76.23;96367.00;6128675;28;20232;-45
2023/03/27 08:54:33;;;;;;;1.70;1.60;;;;;;;6.09;75.04;96372.03;6152753;28;20240;-46
2023/03/27 08:57:36;;;;;;;2.67;1.83;;;;;;;6.11;75.07;96374.44;6146434;28;20277;-49
2023/03/27 09:01:15;;;;;;;2.40;1.70;;;;;;;6.02;75.76;96375.91;6132728;28;20597;-45
2023/03/27 09:04:39;;;;;;;2.07;1.40;;;;;;;5.74;75.34;96361.75;6146580;28;20702;-46
2023/03/27 09:07:54;;;;;;;1.40;1.30;;;;;;;5.83;75.57;96415.00;6135750;28;20226;-48
2023/03/27 09:11:23;;;;;;;1.27;1.17;;;;;;;5.64;75.51;96422.38;6145641;28;20228;-50
2023/03/27 09:14:39;;;;;;;1.07;0.90;;;;;;;5.41;75.53;96416.19;6137534;28;20705;-44
2023/03/27 09:18:01;;;;;;;2.53;0.90;;;;;;;5.19;76.40;96439.06;6135103;28;20377;-46
2023/03/27 09:21:38;;;;;;;1.03;0.50;;;;;;;5.07;75.61;96459.44;6148340;28;20237;-48
2023/03/27 09:24:50;;;;;;;0.30;0.30;;;;;;;4.68;75.09;96432.06;6127377;28;20233;-47
2023/03/27 09:28:37;;;;;;;0.50;0.40;;;;;;;4.80;75.63;96467.94;6148581;28;20333;-48
2023/03/27 09:31:50;;;;;;;0.47;0.47;;;;;;;4.73;75.84;96480.47;6151653;28;20365;-45
2023/03/27 09:34:54;;;;;;;0.37;0.37;;;;;;;4.68;75.62;96493.56;6144919;28;20292;-47
2023/03/27 09:38:02;;;;;;;0.50;0.40;;;;;;;4.60;76.33;96507.88;6148980;28;20239;-46
2023/03/27 09:41:15;;;;;;;0.40;0.40;;;;;;;4.45;73.34;96499.66;6144554;28;20237;-48
2023/03/27 09:44:25;;;;;;;0.30;0.30;;;;;;;4.36;75.25;96530.84;6143625;28;20234;-45
2023/03/27 09:47:45;;;;;;;0.63;0.57;;;;;;;4.20;74.65;96534.19;6151564;28;20238;-50
2023/03/27 09:50:48;;;;;;;0.50;0.50;;;;;;;4.06;74.48;96536.25;6148700;28;20242;-47
2023/03/27 09:54:16;;;;;;;0.77;0.50;;;;;;;3.93;74.53;96554.88;6141587;28;20230;-48
2023/03/27 09:57:19;;;;;;;0.60;0.60;;;;;;;3.78;75.61;96560.59;6142155;28;20697;-51
2023/03/27 10:00:32;;;;;;;0.63;0.53;;;;;;;3.70;75.01;96565.41;6150396;28;20259;-47
2023/03/27 10:03:48;;;;;;;0.73;0.60;;;;;;;3.61;74.23;96580.72;6147678;28;20232;-48
2023/03/27 10:07:14;;;;;;;2.40;0.60;;;;;;;3.51;74.14;96583.88;6140999;28;20241;-51
2023/03/27 10:10:43;;;;;;;0.60;0.60;;;;;;;3.42;72.67;96611.53;6148096;28;20248;-51
2023/03/27 10:14:15;;;;;;;0.60;0.60;;;;;;;3.14;73.77;96600.75;6148471;28;20702;-51
2023/03/27 10:17:28;;;;;;;1.27;0.70;;;;;;;3.28;73.04;96642.50;6141694;28;20264;-51
2023/03/27 10:20:49;;;;;;;0.80;0.80;;;;;;;3.21;75.21;96659.41;6154778;28;20797;-45
2023/03/27 10:23:59;;;;;;;1.43;1.07;;;;;;;3.14;73.05;96654.19;6161207;28;20234;-45
2023/03/27 10:27:30;;;;;;;1.57;0.97;;;;;;;2.95;73.72;96666.53;6151501;28;20244;-45
2023/03/27 10:31:30;;;;;;;0.90;0.77;;;;;;;2.76;72.71;96665.72;6086977;28;20321;-46
2023/03/27 10:34:57;;;;;;;0.80;0.80;;;;;;;2.56;72.17;96697.47;6138976;28;20308;-46
2023/03/27 10:38:21;;;;;;;1.37;1.23;;;;;;;2.31;73.09;96722.91;6146581;28;20242;-46
2023/03/27 10:41:46;;;;;;;3.23;2.00;;;;;;;2.04;74.61;96717.03;6158001;28;20237;-45
2023/03/27 10:44:53;;;;;;;3.03;1.50;;;;;;;2.03;76.36;96745.13;6149505;28;20327;-46
2023/03/27 10:48:00;;;;;;;3.47;1.80;;;;;;;1.75;76.26;96742.03;6146916;28;20238;-44
2023/03/27 10:51:33;;;;;;;1.93;1.80;;;;;;;1.63;75.89;96767.31;6169819;28;20230;-43
2023/03/27 10:55:24;;;;;;;3.20;2.03;;;;;;;1.45;76.36;96771.41;6138271;28;20458;-43
2023/03/27 10:58:34;;;;;;;2.40;2.17;;;;;;;0.95;76.21;96762.44;6153505;28;20247;-46
2023/03/27 11:01:45;;;;;;;2.57;2.37;;;;;;;0.81;77.55;96771.31;6148174;28;20234;-45
2023/03/27 11:04:56;;;;;;;3.30;2.47;;;;;;;0.98;78.66;96814.44;6134127;28;20718;-43
2023/03/27 11:08:20;;;;;;;2.63;2.43;;;;;;;0.81;79.96;96834.22;6153875;28;20257;-42
2023/03/27 11:11:30;;;;;;;2.80;2.53;;;;;;;0.72;80.31;96852.75;6165973;28;20234;-43
2023/03/27 11:14:54;;;;;;;2.40;2.20;;;;;;;0.73;80.23;96849.13;6129122;28;20237;-43
2023/03/27 11:18:13;;;;;;;3.23;2.80;;;;;;;0.71;80.57;96851.16;6141370;28;20242;-42
2023/03/27 11:21:53;;;;;;;3.10;2.70;;;;;;;0.83;79.22;96861.84;6134398;28;20227;-42
2023/03/27 11:25:06;;;;;;;4.33;3.43;;;;;;;0.78;79.41;96875.53;6152484;28;20309;-42
2023/03/27 11:28:08;;;;;;;3.80;3.10;;;;;;;0.78;79.45;96888.66;6142022;28;20796;-41
2023/03/27 11:31:33;;;;;;;5.73;3.57;;;;;;;0.82;80.35;96886.44;6157817;28;20710;-42
2023/03/27 11:34:47;;;;;;;4.30;3.57;;;;;;;0.92;78.88;96910.47;6128614;28;20237;-42
2023/03/27 11:38:40;;;;;;;5.47;2.90;;;;;;;0.87;79.40;96906.81;6143122;28;20242;-42
2023/03/27 11:41:49;;;;;;;3.53;2.90;;;;;;;0.92;79.34;96910.47;6129627;28;20618;-42
2023/03/27 11:44:53;;;;;;;3.53;3.10;;;;;;;1.01;79.02;96919.75;6128969;28;20261;-43
2023/03/27 11:48:34;;;;;;;3.20;2.83;;;;;;;1.06;78.89;96924.41;6146336;28;20214;-43
2023/03/27 11:52:15;;;;;;;2.80;2.60;;;;;;;1.15;79.04;96954.69;6160618;28;20235;-42
2023/03/27 11:55:28;;;;;;;3.13;2.83;;;;;;;1.00;79.20;96941.75;6107236;28;20783;-42
2023/03/27 11:59:11;;;;;;;3.47;3.17;;;;;;;1.09;78.44;96945.00;6153942;28;20616;-42
2023/03/27 12:02:49;;;;;;;3.90;3.30;;;;;;;1.02;79.81;96965.94;6136696;28;20245;-44
2023/03/27 12:06:05;;;;;;;3.20;2.90;;;;;;;1.07;76.39;96938.31;6131161;28;20236;-44
2023/03/27 12:09:24;;;;;;;4.30;3.03;;;;;;;1.28;76.51;96965.19;6144397;28;20245;-44
2023/03/27 12:12:57;;;;;;;3.00;2.73;;;;;;;1.23;77.69;96970.25;6144287;28;20890;-44
2023/03/27 12:16:41;;;;;;;3.83;3.00;;;;;;;1.36;75.88;96958.94;6152558;28;20237;-45
2023/03/27 12:19:54;;;;;;;3.10;2.63;;;;;;;1.67;72.90;96960.13;6147214;28;20804;-45
2023/03/27 12:23:14;;;;;;;5.60;3.27;;;;;;;1.63;75.24;96969.47;6136779;28;20238;-46
2023/03/27 12:27:22;;;;;;;4.23;2.20;;;;;;;1.76;72.16;96974.69;6145630;28;20220;-46
2023/03/27 12:30:46;;;;;;;4.20;2.30;;;;;;;1.93;72.96;96981.16;6124779;28;20237;-47
2023/03/27 12:34:05;;;;;;;3.13;2.40;;;;;;;2.11;71.63;96998.06;6138041;28;20254;-44
2023/03/27 12:37:12;;;;;;;2.37;1.80;;;;;;;2.45;66.01;97004.88;6137365;28;20241;-46
2023/03/27 12:40:40;;;;;;;2.20;2.00;;;;;;;2.40;68.29;97010.75;6127233;28;20245;-46
2023/03/27 12:43:47;;;;;;;2.40;2.10;;;;;;;2.27;71.96;97019.50;6132377;28;20236;-46
2023/03/27 12:47:20;;;;;;;4.33;2.47;;;;;;;2.56;68.36;97015.56;6142956;28;20235;-49
2023/03/27 12:50:29;;;;;;;3.43;2.10;;;;;;;2.74;67.22;97008.81;6139346;28;20223;-47
2023/03/27 12:53:35;;;;;;;2.77;2.00;;;;;;;2.65;68.86;97015.31;6143339;28;20240;-48
2023/03/27 12:56:51;;;;;;;2.60;2.07;;;;;;;2.59;68.98;97022.22;6134258;28;20239;-48
2023/03/27 12:59:57;;;;;;;4.63;2.20;;;;;;;2.82;64.69;96984.94;6148329;28;20246;-47
2023/03/27 13:03:47;;;;;;;2.10;2.00;;;;;;;3.19;64.73;97025.41;6127375;28;20521;-50
2023/03/27 13:07:04;;;;;;;4.90;1.97;;;;;;;3.26;64.97;97028.81;6128910;28;20744;-46
2023/03/27 13:10:27;;;;;;;2.93;2.30;;;;;;;3.33;63.99;97023.50;6147110;28;20261;-47
2023/03/27 13:13:51;;;;;;;4.70;2.13;;;;;;;3.67;60.45;97024.09;6137284;28;20241;-51
2023/03/27 13:17:12;;;;;;;3.40;1.67;;;;;;;3.70;60.63;97023.69;6162955;28;20245;-51
2023/03/27 13:20:45;;;;;;;2.20;1.50;;;;;;;4.01;56.50;97023.63;6163515;28;20237;-51
2023/03/27 13:24:15;;;;;;;3.30;1.40;;;;;;;4.17;54.40;97030.16;6137774;28;20245;-50
2023/03/27 13:27:35;;;;;;;2.63;1.63;;;;;;;4.17;60.24;97043.34;6135535;28;20229;-45
2023/03/27 13:30:45;;;;;;;3.10;1.50;;;;;;;4.17;57.37;97043.34;6148509;28;20240;-47
2023/03/27 13:34:27;;;;;;;4.17;1.40;;;;;;;4.28;49.58;97049.75;6144054;28;20234;-48
2023/03/27 13:37:36;;;;;;;1.47;1.37;;;;;;;4.42;50.03;97047.78;6131973;28;20851;-46
2023/03/27 13:40:43;;;;;;;2.67;1.37;;;;;;;4.46;50.92;97044.50;6143581;28;20433;-47
2023/03/27 13:43:54;;;;;;;2.60;1.30;;;;;;;4.37;53.63;97046.59;6127013;28;20230;-45
2023/03/27 13:47:29;;;;;;;1.70;1.30;;;;;;;4.50;50.41;97060.69;6144107;28;20230;-47
2023/03/27 13:51:05;;;;;;;3.13;1.33;;;;;;;4.85;51.55;97051.19;6136535;28;20252;-47
2023/03/27 13:54:21;;;;;;;2.07;1.53;;;;;;;4.83;47.46;97049.81;6138911;28;20234;-46
2023/03/27 13:57:45;;;;;;;1.33;1.00;;;;;;;4.58;46.92;97057.75;6157721;28;20645;-50
2023/03/27 14:00:59;;;;;;;3.37;1.47;;;;;;;4.71;50.92;97081.38;6140786;28;20230;-47
2023/03/27 14:04:17;;;;;;;1.90;1.10;;;;;;;4.60;45.68;97069.72;6136533;28;20269;-47
2023/03/27 14:07:47;;;;;;;1.43;0.90;;;;;;;4.61;47.56;97071.31;6146165;28;20246;-47
2023/03/27 14:11:07;;;;;;;1.10;1.00;;;;;;;4.79;45.31;97060.00;6151080;28;20266;-46
2023/03/27 14:14:36;;;;;;;1.83;1.30;;;;;;;4.75;46.40;97087.84;6147829;28;22384;-48
2023/03/27 14:18:03;;;;;;;1.83;1.30;;;;;;;4.78;45.21;97076.00;6164845;28;20241;-46
2023/03/27 14:21:11;;;;;;;2.70;1.60;;;;;;;4.88;47.49;97100.91;6148561;28;20230;-51
2023/03/27 14:24:34;;;;;;;2.27;1.47;;;;;;;5.00;44.20;97074.56;6130257;28;20718;-47
2023/03/27 14:27:53;;;;;;;1.33;1.10;;;;;;;4.98;44.61;97089.03;6143569;28;20238;-48
2023/03/27 14:31:04;;;;;;;1.83;1.20;;;;;;;4.92;46.41;97136.34;6162183;28;20979;-46
2023/03/27 14:34:28;;;;;;;2.50;1.00;;;;;;;4.89;46.32;97112.25;6144312;28;20250;-47
2023/03/27 14:38:04;;;;;;;2.63;1.10;;;;;;;4.71;48.03;97151.81;6126941;28;20728;-47
2023/03/27 14:41:25;;;;;;;1.50;0.90;;;;;;;4.37;51.79;97130.97;6164459;28;20718;-48
2023/03/27 14:44:32;;;;;;;2.80;1.20;;;;;;;4.43;51.72;97150.41;6133360;28;20280;-49
2023/03/27 14:47:39;;;;;;;1.23;0.90;;;;;;;4.25;50.53;97145.09;6146875;28;20388;-47
2023/03/27 14:50:45;;;;;;;1.10;0.90;;;;;;;4.33;51.60;97147.44;6138423;28;20234;-47
2023/03/27 14:53:51;;;;;;;1.10;0.90;;;;;;;4.11;52.42;97158.38;6145944;28;20416;-50
2023/03/27 14:57:16;;;;;;;1.17;1.03;;;;;;;4.32;49.27;97138.75;6144429;28;20230;-47
2023/03/27 15:00:33;;;;;;;0.87;0.87;;;;;;;4.39;50.97;97160.59;6145505;28;20226;-50
2023/03/27 15:03:37;;;;;;;1.03;0.87;;;;;;;4.54;50.77;97168.19;6147604;28;20230;-46
2023/03/27 15:06:41;;;;;;;2.70;0.93;;;;;;;4.71;47.09;97154.44;6148803;28;20240;-51
2023/03/27 15:09:45;;;;;;;1.67;0.97;;;;;;;4.82;46.24;97182.75;6146887;28;20230;-51
2023/03/27 15:13:10;;;;;;;1.20;0.90;;;;;;;4.85;45.74;97174.41;6144112;28;20235;-46
2023/03/27 15:16:25;;;;;;;1.63;0.90;;;;;;;4.70;47.59;97195.84;6135081;28;20260;-50
2023/03/27 15:19:33;;;;;;;1.05;0.80;;;;;;;4.83;47.08;97221.34;6156013;28;20453;-48
2023/03/27 15:22:43;;;;;;;2.20;1.03;;;;;;;4.56;47.80;97223.38;6128865;28;20235;-46
2023/03/27 15:25:53;;;;;;;1.33;0.80;;;;;;;4.47;44.79;97214.91;6149432;28;20237;-50